createdAt,value
2023-11-29T00:02:08.841Z,26.60
2023-11-29T00:04:54.463Z,25.10
2023-11-29T00:07:47.127Z,20.55
2023-11-29T00:10:33.033Z,19.75
2023-11-29T00:13:21.639Z,23.20
2023-11-29T00:16:07.676Z,21.08
2023-11-29T00:18:53.106Z,24.25
2023-11-29T00:21:44.907Z,24.00
2023-11-29T00:24:30.164Z,21.20
2023-11-29T00:27:18.980Z,24.88
2023-11-29T00:30:04.772Z,20.23
2023-11-29T00:32:49.934Z,20.70
2023-11-29T00:35:35.176Z,27.58
2023-11-29T00:38:20.566Z,15.95
2023-11-29T00:41:05.957Z,18.13
2023-11-29T00:43:51.424Z,18.45
2023-11-29T00:46:37.192Z,13.90
2023-11-29T00:49:22.787Z,14.32
2023-11-29T00:52:08.639Z,19.38
2023-11-29T00:54:54.031Z,17.73
2023-11-29T00:57:39.329Z,18.63
2023-11-29T01:00:24.792Z,19.25
2023-11-29T01:03:10.386Z,15.23
2023-11-29T01:05:55.759Z,16.17
2023-11-29T01:08:40.979Z,10.23
2023-11-29T01:11:26.596Z,15.48
2023-11-29T01:14:12.020Z,14.80
2023-11-29T01:16:57.393Z,14.40
2023-11-29T01:19:42.876Z,12.15
2023-11-29T01:22:28.170Z,13.02
2023-11-29T01:25:13.703Z,13.52
2023-11-29T01:27:59.095Z,11.50
2023-11-29T01:30:44.469Z,12.60
2023-11-29T01:33:29.830Z,13.32
2023-11-29T01:36:15.295Z,16.15
2023-11-29T01:39:00.689Z,15.40
2023-11-29T01:41:46.259Z,24.58
2023-11-29T01:44:31.361Z,14.60
2023-11-29T01:47:18.120Z,13.98
2023-11-29T01:50:05.256Z,13.85
2023-11-29T01:52:50.628Z,15.18
2023-11-29T01:55:36.741Z,15.77
2023-11-29T01:58:22.609Z,13.80
2023-11-29T02:01:08.571Z,16.25
2023-11-29T02:03:54.049Z,11.52
2023-11-29T02:06:42.154Z,15.90
2023-11-29T02:09:27.559Z,13.50
2023-11-29T02:12:12.958Z,12.57
2023-11-29T02:14:58.501Z,14.07
2023-11-29T02:17:44.006Z,12.93
2023-11-29T02:20:29.300Z,16.70
2023-11-29T02:23:46.473Z,18.20
2023-11-29T02:26:31.845Z,16.88
2023-11-29T02:29:17.412Z,14.68
2023-11-29T02:32:02.743Z,14.90
2023-11-29T02:34:47.984Z,18.92
2023-11-29T02:37:33.486Z,16.00
2023-11-29T02:40:18.762Z,15.00
2023-11-29T02:43:04.157Z,15.73
2023-11-29T02:45:49.436Z,16.10
2023-11-29T02:48:34.932Z,12.60
2023-11-29T02:51:20.376Z,15.02
2023-11-29T02:54:05.817Z,18.95
2023-11-29T02:56:51.216Z,18.17
2023-11-29T02:59:36.959Z,10.60
2023-11-29T03:02:22.091Z,17.08
2023-11-29T03:05:07.693Z,17.13
2023-11-29T03:07:52.721Z,16.15
2023-11-29T03:10:38.237Z,14.82
2023-11-29T03:13:28.593Z,17.63
2023-11-29T03:16:13.920Z,19.92
2023-11-29T03:18:59.429Z,13.45
2023-11-29T03:21:44.782Z,15.88
2023-11-29T03:24:30.286Z,14.35
2023-11-29T03:27:19.822Z,13.35
2023-11-29T03:30:05.483Z,13.93
2023-11-29T03:32:51.024Z,17.50
2023-11-29T03:35:36.351Z,16.48
2023-11-29T03:38:21.861Z,19.48
2023-11-29T03:41:08.709Z,14.05
2023-11-29T03:43:53.857Z,17.55
2023-11-29T03:46:39.337Z,17.42
2023-11-29T03:49:24.600Z,16.15
2023-11-29T03:52:10.058Z,22.45
2023-11-29T03:54:55.198Z,17.52
2023-11-29T03:57:40.433Z,16.67
2023-11-29T04:00:25.889Z,21.83
2023-11-29T04:03:11.320Z,12.80
2023-11-29T04:05:56.660Z,19.90
2023-11-29T04:08:43.251Z,21.88
2023-11-29T04:11:28.459Z,14.40
2023-11-29T04:14:14.253Z,13.93
2023-11-29T04:16:59.990Z,16.20
2023-11-29T04:19:45.227Z,16.77
2023-11-29T04:22:30.724Z,15.25
2023-11-29T04:25:16.216Z,22.23
2023-11-29T04:28:02.005Z,17.75
2023-11-29T04:30:47.358Z,15.75
2023-11-29T04:33:32.688Z,19.70
2023-11-29T04:36:18.177Z,23.55
2023-11-29T04:39:06.447Z,20.33
2023-11-29T04:41:51.765Z,20.67
2023-11-29T04:44:37.660Z,20.48
2023-11-29T04:47:24.957Z,19.33
2023-11-29T04:50:10.404Z,21.08
2023-11-29T04:52:55.836Z,19.65
2023-11-29T04:55:41.154Z,21.27
2023-11-29T04:58:26.745Z,18.35
2023-11-29T05:01:12.641Z,16.65
2023-11-29T05:03:58.343Z,21.02
2023-11-29T05:06:43.822Z,19.13
2023-11-29T05:09:29.255Z,21.85
2023-11-29T05:12:14.655Z,21.08
2023-11-29T05:15:00.299Z,20.50
2023-11-29T05:17:45.929Z,25.85
2023-11-29T05:20:31.878Z,21.48
2023-11-29T05:23:17.192Z,25.10
2023-11-29T05:26:04.230Z,23.02
2023-11-29T05:28:49.508Z,19.95
2023-11-29T05:31:35.742Z,22.48
2023-11-29T05:34:21.500Z,19.85
2023-11-29T05:37:06.934Z,20.02
2023-11-29T05:39:52.577Z,26.90
2023-11-29T05:42:40.047Z,23.83
2023-11-29T05:45:25.681Z,15.63
2023-11-29T05:48:10.923Z,17.75
2023-11-29T05:50:56.169Z,22.80
2023-11-29T05:53:41.761Z,17.40
2023-11-29T05:56:28.974Z,20.85
2023-11-29T05:59:14.026Z,25.45
2023-11-29T06:01:59.956Z,19.55
2023-11-29T06:04:45.164Z,16.67
2023-11-29T06:07:30.624Z,19.00
2023-11-29T06:10:16.102Z,23.05
2023-11-29T06:13:01.657Z,22.55
2023-11-29T06:15:47.437Z,23.98
2023-11-29T06:18:34.614Z,19.90
2023-11-29T06:21:20.664Z,24.70
2023-11-29T06:24:06.708Z,16.15
2023-11-29T06:26:52.126Z,17.67
2023-11-29T06:29:38.780Z,18.52
2023-11-29T06:32:24.662Z,21.83
2023-11-29T06:35:13.512Z,18.27
2023-11-29T06:38:02.692Z,21.77
2023-11-29T06:40:57.196Z,23.75
2023-11-29T06:43:46.686Z,18.35
2023-11-29T06:46:32.173Z,22.48
2023-11-29T06:49:17.651Z,18.33
2023-11-29T06:52:04.715Z,19.40
2023-11-29T06:54:50.108Z,17.92
2023-11-29T06:57:35.368Z,17.95
2023-11-29T07:00:22.629Z,15.90
2023-11-29T07:03:08.160Z,14.18
2023-11-29T07:05:55.977Z,17.00
2023-11-29T07:08:41.740Z,17.20
2023-11-29T07:11:27.009Z,23.75
2023-11-29T07:14:12.731Z,35.47
2023-11-29T07:16:58.023Z,36.65
2023-11-29T07:19:43.435Z,49.80
2023-11-29T07:22:29.240Z,54.60
2023-11-29T07:25:14.830Z,58.75
2023-11-29T07:27:59.956Z,52.50
2023-11-29T07:30:45.525Z,47.70
2023-11-29T07:33:31.038Z,45.60
2023-11-29T07:36:16.238Z,46.08
2023-11-29T07:39:01.922Z,52.65
2023-11-29T07:41:51.160Z,43.10
2023-11-29T07:44:36.497Z,38.33
2023-11-29T07:47:21.605Z,47.60
2023-11-29T07:50:07.829Z,49.70
2023-11-29T07:52:52.906Z,39.80
2023-11-29T07:55:38.209Z,42.72
2023-11-29T07:58:28.733Z,38.05
2023-11-29T08:01:17.028Z,49.45
2023-11-29T08:04:02.529Z,112.55
2023-11-29T08:06:47.814Z,50.83
2023-11-29T08:09:33.524Z,39.72
2023-11-29T08:12:18.952Z,26.63
2023-11-29T08:15:05.054Z,19.58
2023-11-29T08:17:50.522Z,21.42
2023-11-29T08:20:35.870Z,28.23
2023-11-29T08:23:21.464Z,25.48
2023-11-29T08:26:06.845Z,26.88
2023-11-29T08:28:52.612Z,30.23
2023-11-29T08:31:37.738Z,23.25
2023-11-29T08:34:23.235Z,29.67
2023-11-29T08:37:08.680Z,23.30
2023-11-29T08:39:54.818Z,23.52
2023-11-29T08:42:41.275Z,18.15
2023-11-29T08:45:26.868Z,19.73
2023-11-29T08:48:12.354Z,18.20
2023-11-29T08:50:57.888Z,16.23
2023-11-29T08:53:45.224Z,17.83
2023-11-29T08:56:30.761Z,17.83
2023-11-29T09:02:16.308Z,17.55
2023-11-29T09:05:04.495Z,13.90
2023-11-29T09:07:50.152Z,16.37
2023-11-29T09:10:37.886Z,13.25
2023-11-29T09:13:23.580Z,13.60
2023-11-29T09:16:09.353Z,14.73
2023-11-29T09:18:54.745Z,13.82
2023-11-29T09:21:40.215Z,15.02
2023-11-29T09:24:26.738Z,15.23
2023-11-29T09:27:13.066Z,17.50
2023-11-29T09:29:58.388Z,13.10
2023-11-29T09:32:43.695Z,10.02
2023-11-29T09:35:29.153Z,19.42
2023-11-29T09:38:14.490Z,13.73
2023-11-29T09:41:01.529Z,17.65
2023-11-29T09:43:47.813Z,15.30
2023-11-29T09:46:34.081Z,14.45
2023-11-29T09:49:20.051Z,15.80
2023-11-29T09:52:06.227Z,12.55
2023-11-29T09:54:51.360Z,11.65
2023-11-29T09:57:37.676Z,16.63
2023-11-29T10:00:23.209Z,11.18
2023-11-29T10:03:13.220Z,13.63
2023-11-29T10:05:58.644Z,14.88
2023-11-29T10:08:44.891Z,12.95
2023-11-29T10:11:32.210Z,66.80
2023-11-29T10:14:17.544Z,47.50
2023-11-29T10:17:03.626Z,22.48
2023-11-29T10:19:49.259Z,19.90
2023-11-29T10:22:35.550Z,19.17
2023-11-29T10:25:22.341Z,29.17
2023-11-29T10:28:08.216Z,17.90
2023-11-29T10:30:53.793Z,12.38
2023-11-29T10:33:42.868Z,9.95
2023-11-29T10:36:28.199Z,11.45
2023-11-29T10:39:17.937Z,9.98
2023-11-29T10:42:09.339Z,39.45
2023-11-29T10:44:55.089Z,15.77
2023-11-29T10:47:48.647Z,8.70
2023-11-29T10:50:37.210Z,7.93
2023-11-29T10:53:23.182Z,10.07
2023-11-29T10:56:09.504Z,8.13
2023-11-29T10:59:30.492Z,8.27
2023-11-29T11:02:16.553Z,8.43
2023-11-29T11:05:07.250Z,7.80
2023-11-29T11:07:56.113Z,8.27
2023-11-29T11:10:43.657Z,9.32
2023-11-29T11:13:38.029Z,7.53
2023-11-29T11:16:23.693Z,9.63
2023-11-29T11:19:09.965Z,15.65
2023-11-29T11:21:54.977Z,12.30
2023-11-29T11:25:01.797Z,7.65
2023-11-29T11:27:49.169Z,10.88
2023-11-29T11:30:42.224Z,9.60
2023-11-29T11:34:07.573Z,10.48
2023-11-29T11:36:54.894Z,8.52
2023-11-29T11:39:42.545Z,11.02
2023-11-29T11:42:27.660Z,11.25
2023-11-29T11:45:14.650Z,12.65
2023-11-29T11:48:04.983Z,11.68
2023-11-29T11:50:50.285Z,9.10
2023-11-29T11:53:43.120Z,9.63
2023-11-29T11:56:28.594Z,10.77
2023-11-29T11:59:13.629Z,12.48
2023-11-29T12:01:59.006Z,12.48
2023-11-29T12:04:44.365Z,12.77
2023-11-29T12:07:30.645Z,12.10
2023-11-29T12:10:16.728Z,11.35
2023-11-29T12:13:02.364Z,7.75
2023-11-29T12:15:47.886Z,7.80
2023-11-29T12:18:33.425Z,10.38
2023-11-29T12:21:18.700Z,14.75
2023-11-29T12:24:07.730Z,16.50
2023-11-29T12:29:47.555Z,13.13
2023-11-29T12:32:32.843Z,4.95
2023-11-29T12:35:18.463Z,7.82
2023-11-29T12:38:04.270Z,4.68
2023-11-29T12:40:49.523Z,4.80
2023-11-29T12:43:34.836Z,10.27
2023-11-29T12:46:20.443Z,4.70
2023-11-29T12:49:05.899Z,4.90
2023-11-29T12:51:51.802Z,7.47
2023-11-29T12:54:36.954Z,4.85
2023-11-29T12:57:22.382Z,3.90
2023-11-29T13:00:08.609Z,4.80
2023-11-29T13:02:54.203Z,7.47
2023-11-29T13:05:39.611Z,4.10
2023-11-29T13:08:24.806Z,7.50
2023-11-29T13:11:28.779Z,7.13
2023-11-29T13:14:13.778Z,5.20
2023-11-29T13:16:59.011Z,3.60
2023-11-29T13:19:44.437Z,4.05
2023-11-29T13:22:29.702Z,5.25
2023-11-29T13:25:15.309Z,7.43
2023-11-29T13:28:00.705Z,7.15
2023-11-29T13:30:46.024Z,3.30
2023-11-29T13:33:31.686Z,4.05
2023-11-29T13:36:16.732Z,5.65
2023-11-29T13:39:02.239Z,6.53
2023-11-29T13:41:47.772Z,3.45
2023-11-29T13:44:33.452Z,3.85
2023-11-29T13:47:18.945Z,4.38
2023-11-29T13:50:04.745Z,4.30
2023-11-29T13:52:50.273Z,3.90
2023-11-29T13:55:35.663Z,5.38
2023-11-29T13:58:21.090Z,4.72
2023-11-29T14:01:06.894Z,4.50
2023-11-29T14:03:52.375Z,7.82
2023-11-29T14:06:38.726Z,9.38
2023-11-29T14:09:23.659Z,5.20
2023-11-29T14:12:09.065Z,3.13
2023-11-29T14:14:54.450Z,5.20
2023-11-29T14:17:40.034Z,5.35
2023-11-29T14:20:25.497Z,3.70
2023-11-29T14:23:11.000Z,5.68
2023-11-29T14:25:56.351Z,3.90
2023-11-29T14:28:41.765Z,8.23
2023-11-29T14:31:27.280Z,8.98
2023-11-29T14:34:12.466Z,7.40
2023-11-29T14:36:57.922Z,7.07
2023-11-29T14:39:43.853Z,3.50
2023-11-29T14:42:29.327Z,4.70
2023-11-29T14:45:14.844Z,5.38
2023-11-29T14:48:01.333Z,7.32
2023-11-29T14:50:47.216Z,8.00
2023-11-29T14:53:34.430Z,5.25
2023-11-29T14:56:26.778Z,5.00
2023-11-29T14:59:14.930Z,4.85
2023-11-29T15:02:00.378Z,7.07
2023-11-29T15:04:46.437Z,3.88
2023-11-29T15:07:31.584Z,3.90
2023-11-29T15:10:16.844Z,4.75
2023-11-29T15:13:02.538Z,4.40
2023-11-29T15:15:48.260Z,6.05
2023-11-29T15:18:33.626Z,6.47
2023-11-29T15:21:18.964Z,4.97
2023-11-29T15:24:04.414Z,7.53
2023-11-29T15:26:49.794Z,4.93
2023-11-29T15:29:35.360Z,5.45
2023-11-29T15:32:20.419Z,3.72
2023-11-29T15:35:08.364Z,3.67
2023-11-29T15:37:53.846Z,5.73
2023-11-29T15:40:45.450Z,4.15
2023-11-29T15:43:33.308Z,4.90
2023-11-29T15:46:18.729Z,4.05
2023-11-29T15:49:04.030Z,3.45
2023-11-29T15:51:49.315Z,9.35
2023-11-29T15:54:34.570Z,6.60
2023-11-29T15:57:20.898Z,8.13
2023-11-29T16:00:06.693Z,9.02
2023-11-29T16:02:52.094Z,7.53
2023-11-29T16:05:37.340Z,6.95
2023-11-29T16:08:22.583Z,12.05
2023-11-29T16:11:08.137Z,8.18
2023-11-29T16:13:53.710Z,11.27
2023-11-29T16:16:39.115Z,6.40
2023-11-29T16:19:24.582Z,7.20
2023-11-29T16:22:10.868Z,5.55
2023-11-29T16:24:56.078Z,9.00
2023-11-29T16:27:41.565Z,9.02
2023-11-29T16:30:27.190Z,6.10
2023-11-29T16:33:13.165Z,18.35
2023-11-29T16:35:59.292Z,16.88
2023-11-29T16:38:45.757Z,10.52
2023-11-29T16:41:31.151Z,13.15
2023-11-29T16:44:16.576Z,7.95
2023-11-29T16:47:01.807Z,19.95
2023-11-29T16:49:47.110Z,6.47
2023-11-29T16:52:34.270Z,8.55
2023-11-29T16:55:19.529Z,6.90
2023-11-29T16:58:05.657Z,23.23
2023-11-29T17:00:51.160Z,17.98
2023-11-29T17:03:36.610Z,8.45
2023-11-29T17:06:22.281Z,3.80
2023-11-29T17:09:08.978Z,7.20
2023-11-29T17:11:54.285Z,14.32
2023-11-29T17:14:39.791Z,13.70
2023-11-29T17:17:24.968Z,3.70
2023-11-29T17:20:11.040Z,5.57
2023-11-29T17:22:56.767Z,6.20
2023-11-29T17:25:41.918Z,9.00
2023-11-29T17:28:27.512Z,4.53
2023-11-29T17:31:12.907Z,13.38
2023-11-29T17:33:58.083Z,9.77
2023-11-29T17:36:45.069Z,10.57
2023-11-29T17:39:30.185Z,12.75
2023-11-29T17:42:16.933Z,9.85
2023-11-29T17:45:02.154Z,14.63
2023-11-29T17:47:47.758Z,18.50
2023-11-29T17:50:33.317Z,17.50
2023-11-29T17:53:19.908Z,19.00
2023-11-29T17:56:06.086Z,20.30
2023-11-29T17:58:51.517Z,14.48
2023-11-29T18:01:37.413Z,15.82
2023-11-29T18:04:23.111Z,20.23
2023-11-29T18:07:09.010Z,19.48
2023-11-29T18:09:54.531Z,17.55
2023-11-29T18:12:40.434Z,15.48
2023-11-29T18:15:25.636Z,14.88
2023-11-29T18:18:11.328Z,17.05
2023-11-29T18:20:57.574Z,15.85
2023-11-29T18:23:42.839Z,10.65
2023-11-29T18:26:29.172Z,27.25
2023-11-29T18:29:14.580Z,16.75
2023-11-29T18:31:59.914Z,14.15
2023-11-29T18:34:46.326Z,23.23
2023-11-29T18:37:32.205Z,20.23
2023-11-29T18:40:17.893Z,20.10
2023-11-29T18:43:04.004Z,19.42
2023-11-29T18:45:49.718Z,14.50
2023-11-29T18:48:36.023Z,14.25
2023-11-29T18:51:21.519Z,21.02
2023-11-29T18:54:07.080Z,20.27
2023-11-29T18:56:52.404Z,13.85
2023-11-29T18:59:40.581Z,13.93
2023-11-29T19:02:26.358Z,67.55
2023-11-29T19:05:12.902Z,23.98
2023-11-29T19:07:58.674Z,24.15
2023-11-29T19:10:44.812Z,31.55
2023-11-29T19:13:30.353Z,34.05
2023-11-29T19:16:18.218Z,24.55
2023-11-29T19:19:06.119Z,25.30
2023-11-29T19:21:51.496Z,20.23
2023-11-29T19:24:36.790Z,21.02
2023-11-29T19:27:22.237Z,17.52
2023-11-29T19:30:08.805Z,27.08
2023-11-29T19:32:54.699Z,25.45
2023-11-29T19:35:39.938Z,21.92
2023-11-29T19:38:25.656Z,21.80
2023-11-29T19:41:11.070Z,28.00
2023-11-29T19:43:56.493Z,28.08
2023-11-29T19:46:41.704Z,24.98
2023-11-29T19:49:27.289Z,25.23
2023-11-29T19:52:12.805Z,24.60
2023-11-29T19:55:01.369Z,20.23
2023-11-29T19:57:46.506Z,29.00
2023-11-29T20:00:32.026Z,36.42
2023-11-29T20:03:17.312Z,24.75
2023-11-29T20:06:02.679Z,24.50
2023-11-29T20:08:48.212Z,33.20
2023-11-29T20:11:33.689Z,36.22
2023-11-29T20:14:22.876Z,27.70
2023-11-29T20:17:17.539Z,20.25
2023-11-29T20:20:10.145Z,28.85
2023-11-29T20:23:00.642Z,26.92
2023-11-29T20:25:46.115Z,25.08
2023-11-29T20:28:31.413Z,25.15
2023-11-29T20:31:17.967Z,27.35
2023-11-29T20:34:07.514Z,15.50
2023-11-29T20:36:57.508Z,18.08
2023-11-29T20:39:43.030Z,16.95
2023-11-29T20:42:28.424Z,34.40
2023-11-29T20:45:14.065Z,33.45
2023-11-29T20:47:59.816Z,22.17
2023-11-29T20:50:45.423Z,17.63
2023-11-29T20:53:30.752Z,19.90
2023-11-29T20:56:16.088Z,27.90
2023-11-29T20:59:01.393Z,27.55
2023-11-29T21:01:46.801Z,28.55
2023-11-29T21:04:32.453Z,29.63
2023-11-29T21:07:17.756Z,28.48
2023-11-29T21:10:05.294Z,25.55
2023-11-29T21:12:50.784Z,24.75
2023-11-29T21:15:36.092Z,27.38
2023-11-29T21:18:21.658Z,31.70
2023-11-29T21:21:06.901Z,19.42
2023-11-29T21:23:52.475Z,65.90
2023-11-29T21:26:37.728Z,46.67
2023-11-29T21:29:23.214Z,40.08
2023-11-29T21:32:08.634Z,38.03
2023-11-29T21:34:53.943Z,19.75
2023-11-29T21:37:39.512Z,25.08
2023-11-29T21:40:24.892Z,25.63
2023-11-29T21:43:11.213Z,40.33
2023-11-29T21:45:56.457Z,36.63
2023-11-29T21:48:44.647Z,52.25
2023-11-29T21:51:30.562Z,32.05
2023-11-29T21:54:15.864Z,18.90
2023-11-29T21:57:01.219Z,19.77
2023-11-29T21:59:47.462Z,21.55
2023-11-29T22:02:33.686Z,23.17
2023-11-29T22:05:19.861Z,17.40
2023-11-29T22:08:05.408Z,17.60
2023-11-29T22:10:50.794Z,14.63
2023-11-29T22:13:37.148Z,20.73
2023-11-29T22:16:23.623Z,18.95
2023-11-29T22:19:12.805Z,12.32
2023-11-29T22:21:59.389Z,20.50
2023-11-29T22:24:44.521Z,15.02
2023-11-29T22:27:29.987Z,18.75
2023-11-29T22:30:15.545Z,15.77
2023-11-29T22:33:00.669Z,22.48
2023-11-29T22:35:46.127Z,23.77
2023-11-29T22:38:32.360Z,20.38
2023-11-29T22:41:35.978Z,18.55
2023-11-29T22:44:22.005Z,24.80
2023-11-29T22:47:07.272Z,23.88
2023-11-29T22:49:52.849Z,29.17
2023-11-29T22:52:38.176Z,21.45
2023-11-29T22:55:23.470Z,26.42
2023-11-29T22:58:08.799Z,22.80
2023-11-29T23:00:54.223Z,16.30
2023-11-29T23:03:39.899Z,21.77
2023-11-29T23:06:26.124Z,22.58
2023-11-29T23:09:11.358Z,29.70
2023-11-29T23:11:56.822Z,28.63
2023-11-29T23:14:42.152Z,18.83
2023-11-29T23:17:27.508Z,16.33
2023-11-29T23:20:12.899Z,14.52
2023-11-29T23:22:58.196Z,19.63
2023-11-29T23:25:43.519Z,19.92
2023-11-29T23:28:28.896Z,19.55
2023-11-29T23:31:14.340Z,15.30
2023-11-29T23:33:59.574Z,21.60
2023-11-29T23:36:44.811Z,27.10
2023-11-29T23:39:30.237Z,29.02
2023-11-29T23:42:15.645Z,24.90
2023-11-29T23:45:01.120Z,20.45
2023-11-29T23:47:46.672Z,23.15
2023-11-29T23:50:32.183Z,29.40
2023-11-29T23:53:17.570Z,45.65
2023-11-29T23:56:02.927Z,37.97
2023-11-29T23:58:48.306Z,42.28
